sensor_id;sensor_type;location;lat;lon;timestamp;temperature;humidity
22682;DHT22;11508;50.856;4.380;2023-05-07T00:00:04;17.60;1.00
22682;DHT22;11508;50.856;4.380;2023-05-07T00:02:33;17.80;1.00
22682;DHT22;11508;50.856;4.380;2023-05-07T00:04:59;17.90;1.00
22682;DHT22;11508;50.856;4.380;2023-05-07T00:07:24;18.00;99.90
22682;DHT22;11508;50.856;4.380;2023-05-07T00:09:50;18.10;99.90
22682;DHT22;11508;50.856;4.380;2023-05-07T00:12:16;18.00;99.90
22682;DHT22;11508;50.856;4.380;2023-05-07T00:14:41;18.00;99.90
22682;DHT22;11508;50.856;4.380;2023-05-07T00:17:07;18.10;99.90
22682;DHT22;11508;50.856;4.380;2023-05-07T00:19:33;18.20;99.90
22682;DHT22;11508;50.856;4.380;2023-05-07T00:21:58;18.10;99.90
22682;DHT22;11508;50.856;4.380;2023-05-07T00:24:24;18.00;99.90
22682;DHT22;11508;50.856;4.380;2023-05-07T00:26:50;18.00;99.90
22682;DHT22;11508;50.856;4.380;2023-05-07T00:29:15;18.10;99.90
22682;DHT22;11508;50.856;4.380;2023-05-07T00:31:41;18.00;99.90
22682;DHT22;11508;50.856;4.380;2023-05-07T00:34:07;18.00;99.90
22682;DHT22;11508;50.856;4.380;2023-05-07T00:36:32;17.90;99.90
22682;DHT22;11508;50.856;4.380;2023-05-07T00:38:59;17.90;99.90
22682;DHT22;11508;50.856;4.380;2023-05-07T00:41:26;17.70;99.90
22682;DHT22;11508;50.856;4.380;2023-05-07T00:43:52;17.50;99.90
22682;DHT22;11508;50.856;4.380;2023-05-07T00:46:18;17.70;1.00
22682;DHT22;11508;50.856;4.380;2023-05-07T00:48:45;17.80;99.90
22682;DHT22;11508;50.856;4.380;2023-05-07T00:51:11;17.80;99.90
22682;DHT22;11508;50.856;4.380;2023-05-07T00:53:37;17.90;99.90
22682;DHT22;11508;50.856;4.380;2023-05-07T00:56:03;17.90;99.90
22682;DHT22;11508;50.856;4.380;2023-05-07T00:58:30;17.90;99.90
22682;DHT22;11508;50.856;4.380;2023-05-07T01:00:56;18.00;99.90
22682;DHT22;11508;50.856;4.380;2023-05-07T01:03:21;18.00;99.90
22682;DHT22;11508;50.856;4.380;2023-05-07T01:05:48;17.90;99.90
22682;DHT22;11508;50.856;4.380;2023-05-07T01:08:15;18.00;99.90
22682;DHT22;11508;50.856;4.380;2023-05-07T01:10:43;17.20;99.90
22682;DHT22;11508;50.856;4.380;2023-05-07T01:13:10;18.00;99.90
22682;DHT22;11508;50.856;4.380;2023-05-07T01:15:36;18.00;99.90
22682;DHT22;11508;50.856;4.380;2023-05-07T01:18:03;17.90;99.90
22682;DHT22;11508;50.856;4.380;2023-05-07T01:20:29;17.90;99.90
22682;DHT22;11508;50.856;4.380;2023-05-07T01:22:56;17.90;99.90
22682;DHT22;11508;50.856;4.380;2023-05-07T01:25:22;17.80;99.90
22682;DHT22;11508;50.856;4.380;2023-05-07T01:30:15;17.50;99.90
22682;DHT22;11508;50.856;4.380;2023-05-07T01:33:11;17.50;99.90
22682;DHT22;11508;50.856;4.380;2023-05-07T01:35:41;17.40;99.90
22682;DHT22;11508;50.856;4.380;2023-05-07T01:38:09;17.40;99.90
22682;DHT22;11508;50.856;4.380;2023-05-07T01:40:35;17.30;99.90
22682;DHT22;11508;50.856;4.380;2023-05-07T01:43:02;17.20;99.90
22682;DHT22;11508;50.856;4.380;2023-05-07T01:45:30;17.10;99.90
22682;DHT22;11508;50.856;4.380;2023-05-07T01:47:58;17.10;99.90
22682;DHT22;11508;50.856;4.380;2023-05-07T01:50:25;17.00;1.00
22682;DHT22;11508;50.856;4.380;2023-05-07T01:52:52;17.00;1.00
22682;DHT22;11508;50.856;4.380;2023-05-07T01:55:18;17.00;1.00
22682;DHT22;11508;50.856;4.380;2023-05-07T01:57:43;16.90;1.00
22682;DHT22;11508;50.856;4.380;2023-05-07T02:00:10;17.00;1.00
22682;DHT22;11508;50.856;4.380;2023-05-07T02:02:35;16.90;1.00
22682;DHT22;11508;50.856;4.380;2023-05-07T02:05:01;16.90;1.00
22682;DHT22;11508;50.856;4.380;2023-05-07T02:07:28;16.90;1.00
22682;DHT22;11508;50.856;4.380;2023-05-07T02:09:53;17.00;1.00
22682;DHT22;11508;50.856;4.380;2023-05-07T02:12:21;16.90;1.00
22682;DHT22;11508;50.856;4.380;2023-05-07T02:14:47;17.00;99.90
22682;DHT22;11508;50.856;4.380;2023-05-07T02:17:12;17.10;99.90
22682;DHT22;11508;50.856;4.380;2023-05-07T02:19:38;17.20;99.90
22682;DHT22;11508;50.856;4.380;2023-05-07T02:22:04;17.20;99.90
22682;DHT22;11508;50.856;4.380;2023-05-07T02:24:29;17.30;99.90
22682;DHT22;11508;50.856;4.380;2023-05-07T02:26:55;17.40;99.90
22682;DHT22;11508;50.856;4.380;2023-05-07T02:29:21;17.40;99.90
22682;DHT22;11508;50.856;4.380;2023-05-07T02:31:46;17.30;99.90
22682;DHT22;11508;50.856;4.380;2023-05-07T02:34:16;17.10;99.90
22682;DHT22;11508;50.856;4.380;2023-05-07T02:36:42;17.10;99.90
22682;DHT22;11508;50.856;4.380;2023-05-07T02:39:08;17.00;99.90
22682;DHT22;11508;50.856;4.380;2023-05-07T02:41:34;17.00;99.90
22682;DHT22;11508;50.856;4.380;2023-05-07T02:43:59;16.90;99.90
22682;DHT22;11508;50.856;4.380;2023-05-07T02:46:25;17.00;99.90
22682;DHT22;11508;50.856;4.380;2023-05-07T02:48:51;17.10;99.90
22682;DHT22;11508;50.856;4.380;2023-05-07T02:51:20;17.20;99.90
22682;DHT22;11508;50.856;4.380;2023-05-07T02:53:46;17.20;99.90
22682;DHT22;11508;50.856;4.380;2023-05-07T02:56:12;17.30;99.90
22682;DHT22;11508;50.856;4.380;2023-05-07T02:58:37;17.40;99.90
22682;DHT22;11508;50.856;4.380;2023-05-07T03:01:05;17.40;99.90
22682;DHT22;11508;50.856;4.380;2023-05-07T03:03:31;17.50;99.90
22682;DHT22;11508;50.856;4.380;2023-05-07T03:05:57;17.60;99.90
22682;DHT22;11508;50.856;4.380;2023-05-07T03:08:23;17.70;99.90
22682;DHT22;11508;50.856;4.380;2023-05-07T03:10:48;17.70;99.90
22682;DHT22;11508;50.856;4.380;2023-05-07T03:13:14;17.70;99.90
22682;DHT22;11508;50.856;4.380;2023-05-07T03:15:40;17.60;99.90
22682;DHT22;11508;50.856;4.380;2023-05-07T03:18:05;17.70;99.90
22682;DHT22;11508;50.856;4.380;2023-05-07T03:20:31;17.70;99.90
22682;DHT22;11508;50.856;4.380;2023-05-07T03:22:57;17.60;99.90
22682;DHT22;11508;50.856;4.380;2023-05-07T03:25:23;17.60;99.90
22682;DHT22;11508;50.856;4.380;2023-05-07T03:27:48;17.60;99.90
22682;DHT22;11508;50.856;4.380;2023-05-07T03:30:14;17.60;99.90
22682;DHT22;11508;50.856;4.380;2023-05-07T03:32:40;17.60;99.90
22682;DHT22;11508;50.856;4.380;2023-05-07T03:35:06;17.60;99.90
22682;DHT22;11508;50.856;4.380;2023-05-07T03:37:32;17.70;99.90
22682;DHT22;11508;50.856;4.380;2023-05-07T03:39:58;17.70;99.90
22682;DHT22;11508;50.856;4.380;2023-05-07T03:42:23;17.70;99.90
22682;DHT22;11508;50.856;4.380;2023-05-07T03:44:49;17.70;99.90
22682;DHT22;11508;50.856;4.380;2023-05-07T03:47:15;17.30;99.90
22682;DHT22;11508;50.856;4.380;2023-05-07T03:49:40;17.40;99.90
22682;DHT22;11508;50.856;4.380;2023-05-07T03:52:06;17.50;99.90
22682;DHT22;11508;50.856;4.380;2023-05-07T03:54:32;17.60;99.90
22682;DHT22;11508;50.856;4.380;2023-05-07T03:56:58;17.60;99.90
22682;DHT22;11508;50.856;4.380;2023-05-07T03:59:24;17.40;99.90
22682;DHT22;11508;50.856;4.380;2023-05-07T04:01:49;17.40;99.90
22682;DHT22;11508;50.856;4.380;2023-05-07T04:04:15;17.30;99.90
22682;DHT22;11508;50.856;4.380;2023-05-07T04:06:41;17.50;99.90
22682;DHT22;11508;50.856;4.380;2023-05-07T04:09:07;17.60;99.90
22682;DHT22;11508;50.856;4.380;2023-05-07T04:11:33;17.70;99.90
22682;DHT22;11508;50.856;4.380;2023-05-07T04:13:59;17.70;99.90
22682;DHT22;11508;50.856;4.380;2023-05-07T04:16:25;17.70;99.90
22682;DHT22;11508;50.856;4.380;2023-05-07T04:18:51;17.40;99.90
22682;DHT22;11508;50.856;4.380;2023-05-07T04:21:18;17.40;99.90
22682;DHT22;11508;50.856;4.380;2023-05-07T04:23:44;17.40;99.90
22682;DHT22;11508;50.856;4.380;2023-05-07T04:26:09;17.20;99.90
22682;DHT22;11508;50.856;4.380;2023-05-07T04:28:35;17.30;99.90
22682;DHT22;11508;50.856;4.380;2023-05-07T04:31:01;17.20;99.90
22682;DHT22;11508;50.856;4.380;2023-05-07T04:33:27;17.20;99.90
22682;DHT22;11508;50.856;4.380;2023-05-07T04:35:53;17.00;1.00
22682;DHT22;11508;50.856;4.380;2023-05-07T04:38:18;17.20;1.00
22682;DHT22;11508;50.856;4.380;2023-05-07T04:40:44;17.20;99.90
22682;DHT22;11508;50.856;4.380;2023-05-07T04:43:10;17.00;99.90
22682;DHT22;11508;50.856;4.380;2023-05-07T04:45:36;17.10;99.90
22682;DHT22;11508;50.856;4.380;2023-05-07T04:48:02;17.20;99.90
22682;DHT22;11508;50.856;4.380;2023-05-07T04:50:28;17.40;99.90
22682;DHT22;11508;50.856;4.380;2023-05-07T04:52:53;17.50;99.90
22682;DHT22;11508;50.856;4.380;2023-05-07T04:55:19;17.50;99.90
22682;DHT22;11508;50.856;4.380;2023-05-07T04:57:45;17.40;99.90
22682;DHT22;11508;50.856;4.380;2023-05-07T05:00:11;17.30;99.90
22682;DHT22;11508;50.856;4.380;2023-05-07T05:02:40;17.40;99.90
22682;DHT22;11508;50.856;4.380;2023-05-07T05:05:06;17.60;99.90
22682;DHT22;11508;50.856;4.380;2023-05-07T05:07:32;17.50;99.90
22682;DHT22;11508;50.856;4.380;2023-05-07T05:09:58;17.80;99.90
22682;DHT22;11508;50.856;4.380;2023-05-07T05:12:24;17.90;99.90
22682;DHT22;11508;50.856;4.380;2023-05-07T05:17:17;18.20;99.90
22682;DHT22;11508;50.856;4.380;2023-05-07T05:19:44;18.50;99.90
22682;DHT22;11508;50.856;4.380;2023-05-07T05:22:09;18.60;99.90
22682;DHT22;11508;50.856;4.380;2023-05-07T05:24:35;18.70;99.90
22682;DHT22;11508;50.856;4.380;2023-05-07T05:27:00;18.50;99.90
22682;DHT22;11508;50.856;4.380;2023-05-07T05:29:27;18.10;99.90
22682;DHT22;11508;50.856;4.380;2023-05-07T05:34:19;18.60;99.90
22682;DHT22;11508;50.856;4.380;2023-05-07T05:36:47;18.70;99.90
22682;DHT22;11508;50.856;4.380;2023-05-07T05:44:05;19.30;26.10
22682;DHT22;11508;50.856;4.380;2023-05-07T05:46:31;19.20;1.00
22682;DHT22;11508;50.856;4.380;2023-05-07T05:48:57;18.90;94.20
22682;DHT22;11508;50.856;4.380;2023-05-07T05:51:22;18.80;99.90
22682;DHT22;11508;50.856;4.380;2023-05-07T05:53:48;18.70;99.90
22682;DHT22;11508;50.856;4.380;2023-05-07T05:56:15;18.80;99.90
22682;DHT22;11508;50.856;4.380;2023-05-07T05:58:41;18.50;99.90
22682;DHT22;11508;50.856;4.380;2023-05-07T06:01:07;18.40;99.90
22682;DHT22;11508;50.856;4.380;2023-05-07T06:03:32;18.20;99.90
22682;DHT22;11508;50.856;4.380;2023-05-07T06:05:58;17.70;99.90
22682;DHT22;11508;50.856;4.380;2023-05-07T06:10:51;17.00;99.90
22682;DHT22;11508;50.856;4.380;2023-05-07T06:13:17;16.80;99.90
22682;DHT22;11508;50.856;4.380;2023-05-07T06:15:42;16.80;99.90
22682;DHT22;11508;50.856;4.380;2023-05-07T06:18:08;16.80;1.00
22682;DHT22;11508;50.856;4.380;2023-05-07T06:20:34;16.80;1.00
22682;DHT22;11508;50.856;4.380;2023-05-07T06:22:59;16.50;1.00
22682;DHT22;11508;50.856;4.380;2023-05-07T06:25:25;16.40;1.00
22682;DHT22;11508;50.856;4.380;2023-05-07T06:27:51;16.30;1.00
22682;DHT22;11508;50.856;4.380;2023-05-07T06:30:16;16.30;1.00
22682;DHT22;11508;50.856;4.380;2023-05-07T06:32:42;16.30;1.00
22682;DHT22;11508;50.856;4.380;2023-05-07T06:35:08;16.20;1.00
22682;DHT22;11508;50.856;4.380;2023-05-07T06:37:34;16.20;6.50
22682;DHT22;11508;50.856;4.380;2023-05-07T06:39:59;16.20;16.00
22682;DHT22;11508;50.856;4.380;2023-05-07T06:42:28;16.40;12.70
22682;DHT22;11508;50.856;4.380;2023-05-07T06:44:54;16.40;9.40
22682;DHT22;11508;50.856;4.380;2023-05-07T06:47:20;16.30;10.80
22682;DHT22;11508;50.856;4.380;2023-05-07T06:49:46;16.30;9.90
22682;DHT22;11508;50.856;4.380;2023-05-07T06:52:11;16.50;10.70
22682;DHT22;11508;50.856;4.380;2023-05-07T06:57:03;16.40;22.70
22682;DHT22;11508;50.856;4.380;2023-05-07T06:59:29;16.30;35.30
22682;DHT22;11508;50.856;4.380;2023-05-07T07:04:21;16.10;59.70
22682;DHT22;11508;50.856;4.380;2023-05-07T07:06:48;16.00;80.80
22682;DHT22;11508;50.856;4.380;2023-05-07T07:09:14;16.00;83.40
22682;DHT22;11508;50.856;4.380;2023-05-07T07:11:39;16.00;83.90
22682;DHT22;11508;50.856;4.380;2023-05-07T07:14:05;15.90;89.40
22682;DHT22;11508;50.856;4.380;2023-05-07T07:16:31;15.80;97.50
22682;DHT22;11508;50.856;4.380;2023-05-07T07:18:56;15.80;99.90
22682;DHT22;11508;50.856;4.380;2023-05-07T07:21:22;15.80;99.90
22682;DHT22;11508;50.856;4.380;2023-05-07T07:23:48;15.80;99.90
22682;DHT22;11508;50.856;4.380;2023-05-07T07:26:13;15.90;99.90
22682;DHT22;11508;50.856;4.380;2023-05-07T07:28:45;15.80;99.90
22682;DHT22;11508;50.856;4.380;2023-05-07T07:33:37;15.80;99.90
22682;DHT22;11508;50.856;4.380;2023-05-07T07:36:03;15.70;99.90
22682;DHT22;11508;50.856;4.380;2023-05-07T07:38:28;15.70;99.90
22682;DHT22;11508;50.856;4.380;2023-05-07T07:40:54;15.70;99.90
22682;DHT22;11508;50.856;4.380;2023-05-07T07:43:20;15.60;99.90
22682;DHT22;11508;50.856;4.380;2023-05-07T07:45:46;15.90;99.90
22682;DHT22;11508;50.856;4.380;2023-05-07T07:48:11;16.10;99.90
22682;DHT22;11508;50.856;4.380;2023-05-07T07:50:38;15.90;99.90
22682;DHT22;11508;50.856;4.380;2023-05-07T07:53:04;16.00;99.90
22682;DHT22;11508;50.856;4.380;2023-05-07T07:55:29;16.30;99.90
22682;DHT22;11508;50.856;4.380;2023-05-07T08:00:22;16.60;99.90
22682;DHT22;11508;50.856;4.380;2023-05-07T08:02:48;16.70;99.90
22682;DHT22;11508;50.856;4.380;2023-05-07T08:05:14;16.80;99.90
22682;DHT22;11508;50.856;4.380;2023-05-07T08:07:40;16.90;96.50
22682;DHT22;11508;50.856;4.380;2023-05-07T08:10:06;16.80;99.90
22682;DHT22;11508;50.856;4.380;2023-05-07T08:12:32;16.70;99.90
22682;DHT22;11508;50.856;4.380;2023-05-07T08:14:58;16.60;99.90
22682;DHT22;11508;50.856;4.380;2023-05-07T08:17:24;16.50;99.90
22682;DHT22;11508;50.856;4.380;2023-05-07T08:22:22;16.60;99.90
22682;DHT22;11508;50.856;4.380;2023-05-07T08:24:48;16.70;99.90
22682;DHT22;11508;50.856;4.380;2023-05-07T08:27:13;16.60;99.90
22682;DHT22;11508;50.856;4.380;2023-05-07T08:29:39;16.60;99.90
22682;DHT22;11508;50.856;4.380;2023-05-07T08:32:05;16.30;99.90
22682;DHT22;11508;50.856;4.380;2023-05-07T08:34:30;16.40;99.90
22682;DHT22;11508;50.856;4.380;2023-05-07T08:36:56;16.40;99.90
22682;DHT22;11508;50.856;4.380;2023-05-07T08:41:48;16.20;99.90
22682;DHT22;11508;50.856;4.380;2023-05-07T08:44:16;16.20;99.90
22682;DHT22;11508;50.856;4.380;2023-05-07T08:46:45;16.10;99.90
22682;DHT22;11508;50.856;4.380;2023-05-07T08:49:12;16.10;99.90
22682;DHT22;11508;50.856;4.380;2023-05-07T08:51:39;16.00;99.90
22682;DHT22;11508;50.856;4.380;2023-05-07T08:54:05;16.20;99.90
22682;DHT22;11508;50.856;4.380;2023-05-07T08:56:32;16.20;99.90
22682;DHT22;11508;50.856;4.380;2023-05-07T08:58:58;16.60;99.90
22682;DHT22;11508;50.856;4.380;2023-05-07T09:01:24;16.80;99.90
22682;DHT22;11508;50.856;4.380;2023-05-07T09:06:16;17.30;99.90
22682;DHT22;11508;50.856;4.380;2023-05-07T09:08:52;17.60;99.90
22682;DHT22;11508;50.856;4.380;2023-05-07T09:11:24;17.70;93.40
22682;DHT22;11508;50.856;4.380;2023-05-07T09:13:54;17.70;66.00
22682;DHT22;11508;50.856;4.380;2023-05-07T09:16:22;17.50;85.30
22682;DHT22;11508;50.856;4.380;2023-05-07T09:18:50;17.40;95.30
22682;DHT22;11508;50.856;4.380;2023-05-07T09:21:17;17.70;93.90
22682;DHT22;11508;50.856;4.380;2023-05-07T09:23:43;17.70;93.90
22682;DHT22;11508;50.856;4.380;2023-05-07T09:26:09;18.10;85.20
22682;DHT22;11508;50.856;4.380;2023-05-07T09:28:41;17.90;50.20
22682;DHT22;11508;50.856;4.380;2023-05-07T09:31:08;15.60;50.60
22682;DHT22;11508;50.856;4.380;2023-05-07T09:33:33;17.40;84.50
22682;DHT22;11508;50.856;4.380;2023-05-07T09:36:04;17.10;97.00
22682;DHT22;11508;50.856;4.380;2023-05-07T09:38:32;17.00;97.40
22682;DHT22;11508;50.856;4.380;2023-05-07T09:41:09;17.40;96.40
22682;DHT22;11508;50.856;4.380;2023-05-07T09:43:37;17.70;94.70
22682;DHT22;11508;50.856;4.380;2023-05-07T09:46:14;17.90;75.50
22682;DHT22;11508;50.856;4.380;2023-05-07T09:48:42;17.60;84.50
22682;DHT22;11508;50.856;4.380;2023-05-07T09:54:04;18.70;31.80
22682;DHT22;11508;50.856;4.380;2023-05-07T09:56:30;18.70;33.70
22682;DHT22;11508;50.856;4.380;2023-05-07T09:59:00;18.30;20.40
22682;DHT22;11508;50.856;4.380;2023-05-07T10:01:27;18.00;33.80
22682;DHT22;11508;50.856;4.380;2023-05-07T10:03:53;17.90;42.50
22682;DHT22;11508;50.856;4.380;2023-05-07T10:06:20;17.90;42.10
22682;DHT22;11508;50.856;4.380;2023-05-07T10:08:46;17.80;49.20
22682;DHT22;11508;50.856;4.380;2023-05-07T10:11:12;17.70;63.70
22682;DHT22;11508;50.856;4.380;2023-05-07T10:13:39;17.50;79.50
22682;DHT22;11508;50.856;4.380;2023-05-07T10:16:05;17.50;79.90
22682;DHT22;11508;50.856;4.380;2023-05-07T10:18:32;17.50;72.10
22682;DHT22;11508;50.856;4.380;2023-05-07T10:21:06;17.40;80.90
22682;DHT22;11508;50.856;4.380;2023-05-07T10:23:33;17.70;60.50
22682;DHT22;11508;50.856;4.380;2023-05-07T10:26:05;17.60;57.40
22682;DHT22;11508;50.856;4.380;2023-05-07T10:28:35;17.70;65.30
22682;DHT22;11508;50.856;4.380;2023-05-07T10:31:29;17.70;66.20
22682;DHT22;11508;50.856;4.380;2023-05-07T10:33:58;17.60;84.30
22682;DHT22;11508;50.856;4.380;2023-05-07T10:36:25;17.60;91.60
22682;DHT22;11508;50.856;4.380;2023-05-07T10:41:18;17.50;95.90
22682;DHT22;11508;50.856;4.380;2023-05-07T10:43:45;17.50;96.50
22682;DHT22;11508;50.856;4.380;2023-05-07T10:46:16;17.60;99.90
22682;DHT22;11508;50.856;4.380;2023-05-07T10:51:28;18.10;95.50
22682;DHT22;11508;50.856;4.380;2023-05-07T10:56:43;18.20;86.50
22682;DHT22;11508;50.856;4.380;2023-05-07T10:59:33;18.20;85.80
22682;DHT22;11508;50.856;4.380;2023-05-07T11:02:00;18.00;82.00
22682;DHT22;11508;50.856;4.380;2023-05-07T11:04:31;18.00;89.30
22682;DHT22;11508;50.856;4.380;2023-05-07T11:17:09;17.70;90.10
22682;DHT22;11508;50.856;4.380;2023-05-07T11:19:52;21.80;88.40
22682;DHT22;11508;50.856;4.380;2023-05-07T11:22:44;17.90;81.30
22682;DHT22;11508;50.856;4.380;2023-05-07T11:27:36;17.90;55.80
22682;DHT22;11508;50.856;4.380;2023-05-07T11:30:02;17.90;57.10
22682;DHT22;11508;50.856;4.380;2023-05-07T11:32:30;17.80;79.30
22682;DHT22;11508;50.856;4.380;2023-05-07T11:34:57;18.00;68.30
22682;DHT22;11508;50.856;4.380;2023-05-07T11:37:24;18.40;39.20
22682;DHT22;11508;50.856;4.380;2023-05-07T11:39:50;18.50;36.70
22682;DHT22;11508;50.856;4.380;2023-05-07T11:42:31;18.40;36.80
22682;DHT22;11508;50.856;4.380;2023-05-07T11:44:58;18.30;33.40
22682;DHT22;11508;50.856;4.380;2023-05-07T11:47:24;18.60;22.80
22682;DHT22;11508;50.856;4.380;2023-05-07T11:49:51;18.70;22.70
22682;DHT22;11508;50.856;4.380;2023-05-07T11:52:18;18.90;7.60
22682;DHT22;11508;50.856;4.380;2023-05-07T12:02:16;20.00;1.00
22682;DHT22;11508;50.856;4.380;2023-05-07T12:04:42;20.30;1.00
22682;DHT22;11508;50.856;4.380;2023-05-07T12:07:15;19.90;1.00
22682;DHT22;11508;50.856;4.380;2023-05-07T12:09:41;19.90;1.00
22682;DHT22;11508;50.856;4.380;2023-05-07T12:12:07;23.30;1.00
22682;DHT22;11508;50.856;4.380;2023-05-07T12:14:40;19.30;1.00
22682;DHT22;11508;50.856;4.380;2023-05-07T12:17:10;19.30;1.00
22682;DHT22;11508;50.856;4.380;2023-05-07T12:19:38;19.00;20.60
22682;DHT22;11508;50.856;4.380;2023-05-07T12:22:04;19.00;11.80
22682;DHT22;11508;50.856;4.380;2023-05-07T12:24:57;19.00;22.00
22682;DHT22;11508;50.856;4.380;2023-05-07T12:27:23;18.90;22.40
22682;DHT22;11508;50.856;4.380;2023-05-07T12:29:50;18.70;35.30
22682;DHT22;11508;50.856;4.380;2023-05-07T12:32:22;18.80;34.00
22682;DHT22;11508;50.856;4.380;2023-05-07T12:34:51;19.20;44.30
22682;DHT22;11508;50.856;4.380;2023-05-07T12:37:22;19.60;2.90
22682;DHT22;11508;50.856;4.380;2023-05-07T12:42:20;19.60;1.00
22682;DHT22;11508;50.856;4.380;2023-05-07T12:44:51;19.60;1.00
22682;DHT22;11508;50.856;4.380;2023-05-07T12:47:17;19.50;1.00
22682;DHT22;11508;50.856;4.380;2023-05-07T12:49:43;19.70;1.00
22682;DHT22;11508;50.856;4.380;2023-05-07T12:52:11;19.60;1.00
22682;DHT22;11508;50.856;4.380;2023-05-07T12:54:38;19.60;1.00
22682;DHT22;11508;50.856;4.380;2023-05-07T12:57:08;19.90;1.00
22682;DHT22;11508;50.856;4.380;2023-05-07T12:59:37;19.80;1.00
22682;DHT22;11508;50.856;4.380;2023-05-07T13:02:04;19.10;1.00
22682;DHT22;11508;50.856;4.380;2023-05-07T13:04:29;18.90;1.00
22682;DHT22;11508;50.856;4.380;2023-05-07T13:06:55;19.10;1.00
22682;DHT22;11508;50.856;4.380;2023-05-07T13:09:21;19.10;1.00
22682;DHT22;11508;50.856;4.380;2023-05-07T13:11:47;19.10;1.00
22682;DHT22;11508;50.856;4.380;2023-05-07T13:14:12;19.70;1.00
22682;DHT22;11508;50.856;4.380;2023-05-07T13:16:38;19.70;1.00
22682;DHT22;11508;50.856;4.380;2023-05-07T13:19:03;19.80;1.00
22682;DHT22;11508;50.856;4.380;2023-05-07T13:23:59;19.00;1.00
22682;DHT22;11508;50.856;4.380;2023-05-07T13:28:52;18.80;1.00
22682;DHT22;11508;50.856;4.380;2023-05-07T13:31:18;18.80;15.90
22682;DHT22;11508;50.856;4.380;2023-05-07T13:36:09;19.10;11.20
22682;DHT22;11508;50.856;4.380;2023-05-07T13:38:35;18.60;1.00
22682;DHT22;11508;50.856;4.380;2023-05-07T13:41:01;18.40;13.10
22682;DHT22;11508;50.856;4.380;2023-05-07T13:43:27;18.40;13.40
22682;DHT22;11508;50.856;4.380;2023-05-07T13:45:52;18.30;20.30
22682;DHT22;11508;50.856;4.380;2023-05-07T13:48:18;18.30;20.70
22682;DHT22;11508;50.856;4.380;2023-05-07T13:50:44;18.30;21.00
22682;DHT22;11508;50.856;4.380;2023-05-07T13:53:09;18.30;22.50
22682;DHT22;11508;50.856;4.380;2023-05-07T13:55:35;18.40;29.60
22682;DHT22;11508;50.856;4.380;2023-05-07T13:58:02;18.70;25.50
22682;DHT22;11508;50.856;4.380;2023-05-07T14:00:28;18.80;17.20
22682;DHT22;11508;50.856;4.380;2023-05-07T14:02:55;18.80;17.70
22682;DHT22;11508;50.856;4.380;2023-05-07T14:10:18;19.80;1.00
22682;DHT22;11508;50.856;4.380;2023-05-07T14:12:45;19.70;1.00
22682;DHT22;11508;50.856;4.380;2023-05-07T14:15:10;19.60;1.00
22682;DHT22;11508;50.856;4.380;2023-05-07T14:17:37;19.50;1.00
22682;DHT22;11508;50.856;4.380;2023-05-07T14:20:03;19.60;1.00
22682;DHT22;11508;50.856;4.380;2023-05-07T14:22:28;19.20;1.00
22682;DHT22;11508;50.856;4.380;2023-05-07T14:24:54;19.00;1.00
22682;DHT22;11508;50.856;4.380;2023-05-07T14:27:20;19.50;1.00
22682;DHT22;11508;50.856;4.380;2023-05-07T14:29:45;20.00;1.00
22682;DHT22;11508;50.856;4.380;2023-05-07T14:32:19;19.90;1.00
22682;DHT22;11508;50.856;4.380;2023-05-07T14:34:45;19.30;1.00
22682;DHT22;11508;50.856;4.380;2023-05-07T14:42:03;19.40;1.00
22682;DHT22;11508;50.856;4.380;2023-05-07T14:44:29;18.90;1.00
22682;DHT22;11508;50.856;4.380;2023-05-07T14:46:56;18.70;1.00
22682;DHT22;11508;50.856;4.380;2023-05-07T14:49:22;18.80;1.00
22682;DHT22;11508;50.856;4.380;2023-05-07T14:54:15;18.60;4.50
22682;DHT22;11508;50.856;4.380;2023-05-07T14:56:41;18.50;1.80
22682;DHT22;11508;50.856;4.380;2023-05-07T15:01:37;19.00;1.00
22682;DHT22;11508;50.856;4.380;2023-05-07T15:04:03;19.00;1.00
22682;DHT22;11508;50.856;4.380;2023-05-07T15:06:30;19.30;1.00
22682;DHT22;11508;50.856;4.380;2023-05-07T15:08:56;19.00;1.00
22682;DHT22;11508;50.856;4.380;2023-05-07T15:11:22;19.00;1.00
22682;DHT22;11508;50.856;4.380;2023-05-07T15:13:49;18.80;1.00
22682;DHT22;11508;50.856;4.380;2023-05-07T15:16:15;18.80;1.40
22682;DHT22;11508;50.856;4.380;2023-05-07T15:21:08;18.80;5.20
22682;DHT22;11508;50.856;4.380;2023-05-07T15:23:33;18.90;1.00
22682;DHT22;11508;50.856;4.380;2023-05-07T15:30:54;18.90;1.00
22682;DHT22;11508;50.856;4.380;2023-05-07T15:33:20;19.10;1.00
22682;DHT22;11508;50.856;4.380;2023-05-07T15:35:46;19.00;1.00
22682;DHT22;11508;50.856;4.380;2023-05-07T15:38:12;19.00;1.00
22682;DHT22;11508;50.856;4.380;2023-05-07T15:40:38;19.00;1.00
22682;DHT22;11508;50.856;4.380;2023-05-07T15:43:08;18.90;1.00
22682;DHT22;11508;50.856;4.380;2023-05-07T15:45:39;19.10;1.00
22682;DHT22;11508;50.856;4.380;2023-05-07T15:48:05;19.10;1.00
22682;DHT22;11508;50.856;4.380;2023-05-07T15:50:31;19.10;1.00
22682;DHT22;11508;50.856;4.380;2023-05-07T15:52:58;19.10;1.00
22682;DHT22;11508;50.856;4.380;2023-05-07T15:55:24;19.20;1.00
22682;DHT22;11508;50.856;4.380;2023-05-07T15:57:50;19.20;1.00
22682;DHT22;11508;50.856;4.380;2023-05-07T16:00:16;19.30;1.00
22682;DHT22;11508;50.856;4.380;2023-05-07T16:02:43;19.20;1.00
22682;DHT22;11508;50.856;4.380;2023-05-07T16:05:09;19.20;1.00
22682;DHT22;11508;50.856;4.380;2023-05-07T16:07:36;19.30;1.00
22682;DHT22;11508;50.856;4.380;2023-05-07T16:10:03;19.40;1.00
22682;DHT22;11508;50.856;4.380;2023-05-07T16:12:29;19.30;1.00
22682;DHT22;11508;50.856;4.380;2023-05-07T16:14:54;19.30;1.00
22682;DHT22;11508;50.856;4.380;2023-05-07T16:17:20;19.10;1.00
22682;DHT22;11508;50.856;4.380;2023-05-07T16:22:12;18.90;1.30
22682;DHT22;11508;50.856;4.380;2023-05-07T16:24:38;18.90;2.00
22682;DHT22;11508;50.856;4.380;2023-05-07T16:27:03;18.90;1.00
22682;DHT22;11508;50.856;4.380;2023-05-07T16:29:31;18.80;15.40
22682;DHT22;11508;50.856;4.380;2023-05-07T16:31:56;18.60;40.70
22682;DHT22;11508;50.856;4.380;2023-05-07T16:34:23;18.60;45.30
22682;DHT22;11508;50.856;4.380;2023-05-07T16:36:48;18.50;42.90
22682;DHT22;11508;50.856;4.380;2023-05-07T16:39:14;18.40;20.00
22682;DHT22;11508;50.856;4.380;2023-05-07T16:41:40;18.40;24.00
22682;DHT22;11508;50.856;4.380;2023-05-07T16:44:05;18.40;24.10
22682;DHT22;11508;50.856;4.380;2023-05-07T16:46:31;18.30;22.10
22682;DHT22;11508;50.856;4.380;2023-05-07T16:48:57;18.40;19.30
22682;DHT22;11508;50.856;4.380;2023-05-07T16:51:22;18.40;20.20
22682;DHT22;11508;50.856;4.380;2023-05-07T16:56:15;18.40;21.90
22682;DHT22;11508;50.856;4.380;2023-05-07T16:58:41;18.40;24.40
22682;DHT22;11508;50.856;4.380;2023-05-07T17:01:07;18.50;32.60
22682;DHT22;11508;50.856;4.380;2023-05-07T17:03:35;18.50;32.90
22682;DHT22;11508;50.856;4.380;2023-05-07T17:06:01;18.50;24.80
22682;DHT22;11508;50.856;4.380;2023-05-07T17:08:27;18.50;22.30
22682;DHT22;11508;50.856;4.380;2023-05-07T17:10:52;18.50;21.60